createdAt,value
2022-08-17T00:01:52.616Z,18.99
2022-08-17T00:04:21.394Z,19.06
2022-08-17T00:06:53.260Z,18.61
2022-08-17T00:09:21.251Z,18.81
2022-08-17T00:12:42.053Z,18.85
2022-08-17T00:14:38.464Z,18.93
2022-08-17T00:17:06.999Z,18.83
2022-08-17T00:19:34.999Z,18.81
2022-08-17T00:22:33.077Z,18.83
2022-08-17T00:24:55.050Z,18.76
2022-08-17T00:27:22.935Z,18.83
2022-08-17T00:29:51.465Z,18.56
2022-08-17T00:33:10.814Z,18.67
2022-08-17T00:35:10.880Z,18.54
2022-08-17T00:37:40.453Z,18.33
2022-08-17T00:40:10.657Z,18.48
2022-08-17T00:42:39.455Z,18.48
2022-08-17T00:45:10.061Z,18.57
2022-08-17T00:47:38.156Z,18.49
2022-08-17T00:50:07.491Z,18.48
2022-08-17T00:52:43.603Z,18.41
2022-08-17T00:55:11.906Z,17.24
2022-08-17T00:57:44.076Z,18.38
2022-08-17T01:00:16.079Z,18.45
2022-08-17T01:02:46.256Z,18.51
2022-08-17T01:05:16.366Z,18.45
2022-08-17T01:07:50.884Z,18.42
2022-08-17T01:10:59.224Z,18.42
2022-08-17T01:13:14.172Z,17.95
2022-08-17T01:15:49.709Z,18.21
2022-08-17T01:18:17.870Z,18.26
2022-08-17T01:20:50.138Z,18.12
2022-08-17T01:23:22.314Z,18.19
2022-08-17T01:25:51.276Z,18.20
2022-08-17T01:28:36.457Z,17.74
2022-08-17T01:31:09.084Z,18.11
2022-08-17T01:33:37.765Z,17.65
2022-08-17T01:36:07.420Z,18.03
2022-08-17T01:38:37.187Z,18.09
2022-08-17T01:41:09.471Z,17.90
2022-08-17T01:43:42.756Z,17.99
2022-08-17T01:46:11.068Z,18.03
2022-08-17T01:48:39.548Z,18.11
2022-08-17T01:51:08.732Z,17.96
2022-08-17T01:53:42.332Z,17.97
2022-08-17T01:56:12.887Z,18.01
2022-08-17T01:58:42.377Z,17.87
2022-08-17T02:01:12.796Z,17.77
2022-08-17T02:03:40.983Z,17.83
2022-08-17T02:06:27.784Z,17.38
2022-08-17T02:09:02.835Z,17.86
2022-08-17T02:11:33.879Z,17.87
2022-08-17T02:14:04.105Z,17.79
2022-08-17T02:16:37.005Z,17.72
2022-08-17T02:19:08.774Z,17.65
2022-08-17T02:21:37.137Z,16.97
2022-08-17T02:24:09.413Z,17.53
2022-08-17T02:26:37.500Z,17.54
2022-08-17T02:29:05.651Z,17.62
2022-08-17T02:31:35.629Z,17.50
2022-08-17T02:34:05.357Z,17.68
2022-08-17T02:36:34.941Z,17.72
2022-08-17T02:39:03.439Z,17.55
2022-08-17T02:41:33.645Z,17.62
2022-08-17T02:44:01.752Z,17.57
2022-08-17T02:46:30.517Z,17.55
2022-08-17T02:48:58.521Z,17.51
2022-08-17T02:51:27.173Z,17.30
2022-08-17T02:54:05.293Z,17.47
2022-08-17T02:56:44.750Z,17.51
2022-08-17T02:59:12.725Z,17.37
2022-08-17T03:01:40.879Z,17.50
2022-08-17T03:04:09.038Z,17.44
2022-08-17T03:06:52.265Z,17.22
2022-08-17T03:09:20.242Z,17.39
2022-08-17T03:11:50.834Z,17.43
2022-08-17T03:14:26.097Z,16.19
2022-08-17T03:16:54.404Z,17.37
2022-08-17T03:19:22.329Z,17.29
2022-08-17T03:21:55.423Z,17.27
2022-08-17T03:24:28.772Z,17.21
2022-08-17T03:26:57.079Z,17.21
2022-08-17T03:29:25.176Z,17.21
2022-08-17T03:31:53.475Z,17.21
2022-08-17T03:34:21.342Z,17.05
2022-08-17T03:36:49.415Z,17.15
2022-08-17T03:39:17.816Z,16.86
2022-08-17T03:42:03.727Z,17.09
2022-08-17T03:44:31.721Z,17.05
2022-08-17T03:47:17.035Z,17.05
2022-08-17T03:50:02.257Z,17.01
2022-08-17T03:52:52.996Z,16.99
2022-08-17T03:55:38.782Z,16.98
2022-08-17T03:58:12.979Z,17.03
2022-08-17T04:00:45.682Z,16.99
2022-08-17T04:03:14.154Z,16.94
2022-08-17T04:05:42.201Z,16.71
2022-08-17T04:08:10.750Z,16.81
2022-08-17T04:10:41.343Z,16.82
2022-08-17T04:13:14.897Z,16.90
2022-08-17T04:15:52.041Z,16.89
2022-08-17T04:18:20.770Z,16.91
2022-08-17T04:20:48.772Z,16.77
2022-08-17T04:23:19.145Z,16.84
2022-08-17T04:25:49.253Z,17.07
2022-08-17T04:28:19.823Z,17.16
2022-08-17T04:30:48.976Z,16.86
2022-08-17T04:33:19.084Z,17.24
2022-08-17T04:35:49.402Z,17.28
2022-08-17T04:38:20.854Z,17.33
2022-08-17T04:41:07.591Z,17.38
2022-08-17T04:43:39.103Z,17.54
2022-08-17T04:46:10.432Z,17.69
2022-08-17T04:48:41.434Z,17.47
2022-08-17T04:51:12.355Z,17.44
2022-08-17T04:53:40.965Z,17.33
2022-08-17T04:56:15.941Z,17.38
2022-08-17T04:58:47.881Z,17.55
2022-08-17T05:01:24.017Z,17.48
2022-08-17T05:03:53.006Z,17.43
2022-08-17T05:06:21.246Z,17.28
2022-08-17T05:08:49.610Z,17.67
2022-08-17T05:11:17.923Z,17.63
2022-08-17T05:13:50.055Z,17.47
2022-08-17T05:16:18.744Z,17.32
2022-08-17T05:18:46.863Z,17.45
2022-08-17T05:21:15.604Z,17.57
2022-08-17T05:23:45.564Z,17.81
2022-08-17T05:26:26.800Z,17.78
2022-08-17T05:28:59.654Z,17.58
2022-08-17T05:31:29.422Z,17.83
2022-08-17T05:33:57.738Z,18.04
2022-08-17T05:36:43.364Z,18.23
2022-08-17T05:39:17.020Z,18.28
2022-08-17T05:41:47.035Z,18.21
2022-08-17T05:44:17.119Z,18.33
2022-08-17T05:46:46.753Z,18.41
2022-08-17T05:49:18.927Z,18.48
2022-08-17T05:52:12.392Z,18.35
2022-08-17T05:54:55.959Z,17.92
2022-08-17T05:57:39.521Z,18.38
2022-08-17T06:00:18.313Z,18.42
2022-08-17T06:03:06.058Z,18.39
2022-08-17T06:06:07.055Z,18.32
2022-08-17T06:08:42.296Z,18.32
2022-08-17T06:11:20.454Z,18.29
2022-08-17T06:14:20.566Z,18.39
2022-08-17T06:16:56.065Z,18.54
2022-08-17T06:19:32.612Z,18.65
2022-08-17T06:22:02.740Z,18.53
2022-08-17T06:24:34.463Z,18.61
2022-08-17T06:27:09.745Z,18.75
2022-08-17T06:29:47.142Z,19.00
2022-08-17T06:32:17.267Z,18.88
2022-08-17T06:34:46.954Z,19.13
2022-08-17T06:37:31.125Z,18.99
2022-08-17T06:40:15.576Z,19.05
2022-08-17T06:43:05.026Z,19.14
2022-08-17T06:45:38.675Z,18.26
2022-08-17T06:48:14.169Z,19.64
2022-08-17T06:50:48.278Z,20.03
2022-08-17T06:53:24.531Z,20.30
2022-08-17T06:55:59.867Z,20.31
2022-08-17T06:58:31.609Z,20.86
2022-08-17T07:01:06.917Z,21.00
2022-08-17T07:03:40.848Z,20.79
2022-08-17T07:06:14.089Z,20.62
2022-08-17T07:08:52.162Z,20.92
2022-08-17T07:11:28.340Z,21.16
2022-08-17T07:14:07.027Z,21.04
2022-08-17T07:16:41.155Z,21.28
2022-08-17T07:19:11.277Z,21.16
2022-08-17T07:21:45.992Z,21.34
2022-08-17T07:24:33.272Z,21.19
2022-08-17T07:27:07.497Z,21.53
2022-08-17T07:29:41.093Z,21.61
2022-08-17T07:32:11.219Z,21.53
2022-08-17T07:34:57.653Z,21.64
2022-08-17T07:37:27.459Z,21.86
2022-08-17T07:40:14.769Z,21.58
2022-08-17T07:42:45.146Z,22.47
2022-08-17T07:45:29.978Z,22.47
2022-08-17T07:48:15.721Z,22.54
2022-08-17T07:50:50.545Z,22.47
2022-08-17T07:53:23.330Z,22.79
2022-08-17T07:55:53.500Z,22.84
2022-08-17T07:58:26.550Z,22.41
2022-08-17T08:01:06.930Z,22.71
2022-08-17T08:03:43.721Z,23.09
2022-08-17T08:06:28.005Z,23.24
2022-08-17T08:09:00.895Z,23.33
2022-08-17T08:11:40.205Z,23.46
2022-08-17T08:14:33.663Z,23.68
2022-08-17T08:17:03.591Z,23.82
2022-08-17T08:19:32.428Z,23.85
2022-08-17T08:22:06.182Z,23.67
2022-08-17T08:24:52.154Z,23.94
2022-08-17T08:27:38.561Z,23.94
2022-08-17T08:30:11.489Z,23.89
2022-08-17T08:32:57.702Z,24.11
2022-08-17T08:35:31.163Z,24.24
2022-08-17T08:38:12.058Z,24.41
2022-08-17T08:40:53.833Z,24.74
2022-08-17T08:43:32.625Z,24.39
2022-08-17T08:46:07.994Z,24.65
2022-08-17T08:49:00.150Z,25.09
2022-08-17T08:51:47.028Z,25.52
2022-08-17T08:54:28.946Z,25.66
2022-08-17T08:57:24.321Z,25.57
2022-08-17T09:00:15.539Z,25.64
2022-08-17T09:03:16.878Z,25.53
2022-08-17T09:06:00.485Z,25.55
2022-08-17T09:08:37.908Z,25.58
2022-08-17T09:11:10.739Z,25.30
2022-08-17T09:13:54.375Z,25.56
2022-08-17T09:16:29.928Z,25.69
2022-08-17T09:19:05.073Z,26.01
2022-08-17T09:21:45.774Z,26.12
2022-08-17T09:24:23.055Z,25.98
2022-08-17T09:26:58.885Z,26.29
2022-08-17T09:29:35.469Z,26.55
2022-08-17T09:32:10.316Z,26.80
2022-08-17T09:34:52.633Z,26.84
2022-08-17T09:37:27.053Z,26.95
2022-08-17T09:40:08.688Z,27.06
2022-08-17T09:42:43.785Z,27.16
2022-08-17T09:45:27.865Z,27.07
2022-08-17T09:48:00.992Z,26.96
2022-08-17T09:51:03.633Z,26.76
2022-08-17T09:53:24.366Z,27.16
2022-08-17T09:56:17.730Z,27.27
2022-08-17T09:58:59.259Z,27.60
2022-08-17T10:01:36.876Z,27.89
2022-08-17T10:04:24.892Z,27.98
2022-08-17T10:07:15.066Z,28.00
2022-08-17T10:09:57.924Z,27.69
2022-08-17T10:12:39.605Z,27.97
2022-08-17T10:15:26.002Z,27.88
2022-08-17T10:18:24.619Z,27.90
2022-08-17T10:21:20.816Z,28.07
2022-08-17T10:24:11.185Z,28.10
2022-08-17T10:26:55.921Z,28.38
2022-08-17T10:29:46.260Z,28.44
2022-08-17T10:32:27.073Z,28.41
2022-08-17T10:35:16.624Z,28.41
2022-08-17T10:38:01.327Z,28.33
2022-08-17T10:40:38.065Z,28.37
2022-08-17T10:43:29.237Z,27.95
2022-08-17T10:46:10.520Z,28.42
2022-08-17T10:49:23.262Z,28.29
2022-08-17T10:51:54.552Z,28.23
2022-08-17T10:54:47.414Z,28.33
2022-08-17T10:57:38.940Z,28.50
2022-08-17T11:00:12.823Z,28.29
2022-08-17T11:02:49.621Z,28.37
2022-08-17T11:05:43.707Z,28.29
2022-08-17T11:08:47.351Z,28.26
2022-08-17T11:11:35.907Z,28.34
2022-08-17T11:14:35.454Z,28.31
2022-08-17T11:17:16.942Z,28.53
2022-08-17T11:20:05.146Z,28.35
2022-08-17T11:23:00.732Z,28.44
2022-08-17T11:25:35.562Z,28.62
2022-08-17T11:28:17.443Z,28.69
2022-08-17T11:30:52.557Z,28.71
2022-08-17T11:33:53.763Z,28.74
2022-08-17T11:36:32.878Z,28.46
2022-08-17T11:39:16.229Z,28.79
2022-08-17T11:41:55.008Z,28.63
2022-08-17T11:44:37.719Z,28.48
2022-08-17T11:47:36.667Z,28.53
2022-08-17T11:50:45.202Z,28.77
2022-08-17T11:53:50.093Z,28.77
2022-08-17T11:56:38.270Z,29.06
2022-08-17T11:59:47.506Z,29.12
2022-08-17T12:03:09.980Z,29.46
2022-08-17T12:05:39.957Z,29.52
2022-08-17T12:08:14.730Z,29.57
2022-08-17T12:10:59.421Z,29.41
2022-08-17T12:13:33.993Z,29.45
2022-08-17T12:16:07.310Z,29.38
2022-08-17T12:18:39.526Z,29.38
2022-08-17T12:21:41.431Z,29.39
2022-08-17T12:24:24.621Z,29.41
2022-08-17T12:26:56.770Z,29.60
2022-08-17T12:29:38.287Z,29.59
2022-08-17T12:32:14.250Z,29.40
2022-08-17T12:34:44.324Z,29.22
2022-08-17T12:37:18.575Z,29.28
2022-08-17T12:39:59.702Z,29.11
2022-08-17T12:42:31.110Z,29.14
2022-08-17T12:44:59.826Z,29.12
2022-08-17T12:47:31.905Z,29.09
2022-08-17T12:50:08.354Z,29.05
2022-08-17T12:53:02.066Z,29.15
2022-08-17T12:55:38.799Z,29.07
2022-08-17T12:58:12.216Z,28.89
2022-08-17T13:00:48.683Z,29.62
2022-08-17T13:03:20.947Z,29.60
2022-08-17T13:05:57.474Z,29.13
2022-08-17T13:08:31.153Z,29.50
2022-08-17T13:11:02.500Z,29.30
2022-08-17T13:13:32.943Z,29.07
2022-08-17T13:16:03.605Z,28.96
2022-08-17T13:18:44.052Z,28.80
2022-08-17T13:21:19.305Z,28.73
2022-08-17T13:23:58.616Z,28.20
2022-08-17T13:26:31.914Z,28.60
2022-08-17T13:29:01.390Z,28.39
2022-08-17T13:31:51.165Z,28.58
2022-08-17T13:34:38.712Z,28.46
2022-08-17T13:37:29.672Z,28.46
2022-08-17T13:40:01.583Z,28.35
2022-08-17T13:42:51.904Z,28.40
2022-08-17T13:45:52.598Z,28.46
2022-08-17T13:48:29.773Z,28.42
2022-08-17T13:51:13.805Z,28.36
2022-08-17T13:53:59.484Z,28.38
2022-08-17T13:56:54.412Z,28.32
2022-08-17T13:59:54.395Z,28.11
2022-08-17T14:02:27.672Z,28.36
2022-08-17T14:04:58.504Z,28.42
2022-08-17T14:07:34.156Z,28.04
2022-08-17T14:10:05.285Z,28.24
2022-08-17T14:12:36.188Z,28.11
2022-08-17T14:15:05.045Z,27.94
2022-08-17T14:17:38.074Z,27.90
2022-08-17T14:20:09.801Z,27.39
2022-08-17T14:22:41.705Z,27.00
2022-08-17T14:25:10.384Z,26.76
2022-08-17T14:27:51.998Z,26.71
2022-08-17T14:30:24.785Z,26.10
2022-08-17T14:32:53.241Z,26.20
2022-08-17T14:35:24.665Z,25.92
2022-08-17T14:37:53.968Z,25.68
2022-08-17T14:40:25.133Z,25.47
2022-08-17T14:42:56.539Z,25.20
2022-08-17T14:45:32.137Z,24.66
2022-08-17T14:48:04.017Z,25.21
2022-08-17T14:50:35.537Z,25.07
2022-08-17T14:53:05.211Z,25.28
2022-08-17T14:55:33.765Z,25.60
2022-08-17T14:58:04.021Z,25.62
2022-08-17T15:00:32.598Z,25.83
2022-08-17T15:03:01.562Z,25.99
2022-08-17T15:05:32.440Z,25.78
2022-08-17T15:08:00.954Z,25.87
2022-08-17T15:10:29.576Z,26.19
2022-08-17T15:12:58.392Z,25.60
2022-08-17T15:15:29.068Z,25.90
2022-08-17T15:17:57.923Z,25.80
2022-08-17T15:20:28.820Z,26.25
2022-08-17T15:22:58.785Z,26.10
2022-08-17T15:25:29.647Z,25.92
2022-08-17T15:27:57.794Z,25.87
2022-08-17T15:30:27.752Z,26.19
2022-08-17T15:32:57.656Z,26.43
2022-08-17T15:35:29.458Z,26.54
2022-08-17T15:38:04.913Z,26.31
2022-08-17T15:40:36.617Z,26.31
2022-08-17T15:43:08.601Z,26.10
2022-08-17T15:45:38.831Z,26.33
2022-08-17T15:50:55.064Z,26.73
2022-08-17T15:53:23.101Z,26.86
2022-08-17T15:55:51.302Z,26.96
2022-08-17T15:58:19.996Z,27.03
2022-08-17T16:01:14.876Z,27.08
2022-08-17T16:04:03.797Z,27.18
2022-08-17T16:06:35.317Z,27.25
2022-08-17T16:09:03.578Z,27.27
2022-08-17T16:11:31.723Z,27.32
2022-08-17T16:13:59.809Z,27.18
2022-08-17T16:16:31.267Z,27.32
2022-08-17T16:18:59.535Z,27.16
2022-08-17T16:21:31.247Z,27.05
2022-08-17T16:24:13.237Z,26.74
2022-08-17T16:26:43.500Z,27.06
2022-08-17T16:29:11.573Z,27.11
2022-08-17T16:31:41.943Z,27.12
2022-08-17T16:34:17.159Z,26.73
2022-08-17T16:36:54.937Z,27.04
2022-08-17T16:39:26.085Z,26.83
2022-08-17T16:41:54.468Z,27.16
2022-08-17T16:44:22.942Z,27.26
2022-08-17T16:46:52.405Z,27.15
2022-08-17T16:49:32.436Z,26.97
2022-08-17T16:52:09.900Z,26.89
2022-08-17T16:54:40.654Z,26.51
2022-08-17T16:57:08.855Z,26.66
2022-08-17T16:59:41.969Z,26.61
2022-08-17T17:02:15.286Z,26.65
2022-08-17T17:04:51.204Z,26.17
2022-08-17T17:07:34.859Z,26.46
2022-08-17T17:10:08.734Z,26.12
2022-08-17T17:13:01.245Z,26.19
2022-08-17T17:15:41.059Z,26.19
2022-08-17T17:18:14.072Z,25.84
2022-08-17T17:20:48.821Z,25.92
2022-08-17T17:23:36.002Z,26.17
2022-08-17T17:26:13.311Z,25.96
2022-08-17T17:28:54.120Z,25.89
2022-08-17T17:31:26.767Z,26.45
2022-08-17T17:34:00.402Z,26.49
2022-08-17T17:36:33.183Z,26.47
2022-08-17T17:39:05.538Z,26.51
2022-08-17T17:41:42.152Z,26.43
2022-08-17T17:44:17.850Z,26.52
2022-08-17T17:46:52.938Z,26.49
2022-08-17T17:49:22.369Z,26.33
2022-08-17T17:52:10.964Z,26.33
2022-08-17T17:54:52.617Z,25.99
2022-08-17T17:57:28.700Z,24.92
2022-08-17T18:00:08.187Z,25.75
2022-08-17T18:02:55.149Z,25.57
2022-08-17T18:05:44.640Z,25.46
2022-08-17T18:08:32.047Z,25.09
2022-08-17T18:11:09.189Z,24.84
2022-08-17T18:13:53.358Z,24.78
2022-08-17T18:16:22.578Z,24.80
2022-08-17T18:18:53.526Z,24.73
2022-08-17T18:21:27.767Z,24.61
2022-08-17T18:23:58.237Z,24.49
2022-08-17T18:26:39.433Z,24.45
2022-08-17T18:29:26.551Z,24.46
2022-08-17T18:32:25.607Z,24.28
2022-08-17T18:34:55.964Z,24.24
2022-08-17T18:37:39.166Z,24.16
2022-08-17T18:40:35.562Z,23.98
2022-08-17T18:43:10.025Z,23.85
2022-08-17T18:45:45.959Z,23.76
2022-08-17T18:48:25.532Z,23.38
2022-08-17T18:50:55.900Z,23.27
2022-08-17T18:53:38.785Z,23.49
2022-08-17T18:56:21.148Z,23.20
2022-08-17T18:58:56.762Z,23.33
2022-08-17T19:01:51.460Z,23.02
2022-08-17T19:04:30.536Z,23.10
2022-08-17T19:07:23.539Z,23.20
2022-08-17T19:09:57.120Z,23.12
2022-08-17T19:12:32.583Z,23.18
2022-08-17T19:15:01.887Z,23.20
2022-08-17T19:17:43.901Z,22.89
2022-08-17T19:20:19.654Z,22.86
2022-08-17T19:23:00.367Z,22.69
2022-08-17T19:25:34.317Z,22.71
2022-08-17T19:28:21.646Z,22.61
2022-08-17T19:30:56.388Z,22.54
2022-08-17T19:33:24.832Z,22.05
2022-08-17T19:36:02.158Z,22.43
2022-08-17T19:38:41.625Z,22.18
2022-08-17T19:41:20.382Z,22.18
2022-08-17T19:44:11.145Z,22.05
2022-08-17T19:46:50.429Z,22.06
2022-08-17T19:49:33.220Z,22.06
2022-08-17T19:52:20.314Z,21.98
2022-08-17T19:54:56.694Z,21.69
2022-08-17T19:57:38.210Z,21.80
2022-08-17T20:00:11.927Z,21.72
2022-08-17T20:02:48.827Z,21.85
2022-08-17T20:05:22.655Z,21.74
2022-08-17T20:07:56.944Z,21.65
2022-08-17T20:10:38.653Z,21.75
2022-08-17T20:13:12.825Z,21.83
2022-08-17T20:15:43.514Z,21.74
2022-08-17T20:18:19.985Z,21.54
2022-08-17T20:20:58.389Z,21.54
2022-08-17T20:23:42.154Z,21.44
2022-08-17T20:26:23.150Z,21.08
2022-08-17T20:29:36.860Z,21.21
2022-08-17T20:32:21.373Z,20.91
2022-08-17T20:34:49.560Z,21.21
2022-08-17T20:37:32.177Z,21.14
2022-08-17T20:40:31.752Z,21.11
2022-08-17T20:43:01.361Z,21.07
2022-08-17T20:46:02.981Z,21.01
2022-08-17T20:48:38.941Z,20.62
2022-08-17T20:51:20.275Z,21.06
2022-08-17T20:54:07.708Z,20.66
2022-08-17T20:56:57.580Z,20.86
2022-08-17T21:00:03.680Z,20.78
2022-08-17T21:02:33.778Z,20.29
2022-08-17T21:05:06.985Z,20.82
2022-08-17T21:07:59.001Z,20.89
2022-08-17T21:10:38.439Z,20.75
2022-08-17T21:13:32.601Z,20.91
2022-08-17T21:16:08.902Z,20.86
2022-08-17T21:18:45.438Z,20.76
2022-08-17T21:21:23.951Z,20.15
2022-08-17T21:24:11.782Z,20.80
2022-08-17T21:26:55.797Z,20.77
2022-08-17T21:29:32.562Z,20.40
2022-08-17T21:32:19.212Z,20.99
2022-08-17T21:35:07.520Z,21.05
2022-08-17T21:37:43.899Z,21.05
2022-08-17T21:40:25.161Z,20.90
2022-08-17T21:42:56.211Z,20.79
2022-08-17T21:45:27.565Z,20.32
2022-08-17T21:48:11.230Z,19.94
2022-08-17T21:50:41.714Z,20.44
2022-08-17T21:53:19.432Z,20.31
2022-08-17T21:55:50.477Z,20.53
2022-08-17T21:58:29.991Z,20.27
2022-08-17T22:01:23.974Z,20.45
2022-08-17T22:03:59.407Z,20.22
2022-08-17T22:06:31.312Z,20.32
2022-08-17T22:09:17.294Z,20.27
2022-08-17T22:12:01.927Z,20.10
2022-08-17T22:14:53.297Z,20.18
2022-08-17T22:17:25.740Z,20.25
2022-08-17T22:19:56.334Z,20.14
2022-08-17T22:22:34.698Z,19.76
2022-08-17T22:25:07.283Z,20.06
2022-08-17T22:27:47.122Z,19.91
2022-08-17T22:30:20.599Z,19.61
2022-08-17T22:32:50.009Z,20.11
2022-08-17T22:35:31.518Z,20.20
2022-08-17T22:38:27.552Z,20.32
2022-08-17T22:41:13.769Z,19.70
2022-08-17T22:43:44.838Z,20.33
2022-08-17T22:46:14.889Z,20.24
2022-08-17T22:48:49.019Z,19.62
2022-08-17T22:51:21.805Z,20.22
2022-08-17T22:54:09.751Z,20.13
2022-08-17T22:57:05.393Z,19.85
2022-08-17T22:59:41.522Z,20.10
2022-08-17T23:02:19.232Z,20.01
2022-08-17T23:04:51.235Z,19.75
2022-08-17T23:07:20.422Z,19.97
2022-08-17T23:09:48.486Z,19.90
2022-08-17T23:12:22.865Z,19.90
2022-08-17T23:14:57.029Z,19.95
2022-08-17T23:17:25.471Z,20.09
2022-08-17T23:19:55.427Z,20.01
2022-08-17T23:22:23.794Z,19.47
2022-08-17T23:24:52.176Z,20.05
2022-08-17T23:27:22.120Z,20.05
2022-08-17T23:29:50.507Z,19.49
2022-08-17T23:32:19.493Z,19.99
2022-08-17T23:34:50.359Z,19.90
2022-08-17T23:37:19.847Z,19.87
2022-08-17T23:39:47.813Z,19.93
2022-08-17T23:42:21.634Z,19.78
2022-08-17T23:44:51.050Z,19.93
2022-08-17T23:47:18.977Z,19.67
2022-08-17T23:49:47.008Z,19.80
2022-08-17T23:52:16.672Z,19.70
2022-08-17T23:54:46.617Z,19.41
2022-08-17T23:57:17.204Z,19.61
2022-08-17T23:59:45.929Z,19.77
